createdAt,value
2023-03-03T00:00:33.844Z,13.45
2023-03-03T00:03:05.558Z,13.90
2023-03-03T00:05:36.352Z,11.82
2023-03-03T00:08:05.963Z,12.15
2023-03-03T00:10:34.457Z,11.88
2023-03-03T00:13:03.341Z,12.93
2023-03-03T00:15:32.726Z,12.68
2023-03-03T00:18:01.689Z,14.68
2023-03-03T00:20:36.838Z,13.25
2023-03-03T00:23:21.687Z,12.13
2023-03-03T00:25:52.534Z,11.48
2023-03-03T00:28:25.604Z,12.52
2023-03-03T00:30:55.885Z,11.30
2023-03-03T00:33:29.468Z,13.98
2023-03-03T00:36:08.099Z,12.13
2023-03-03T00:38:37.659Z,12.27
2023-03-03T00:41:17.441Z,11.63
2023-03-03T00:43:45.871Z,11.80
2023-03-03T00:46:18.812Z,12.05
2023-03-03T00:48:48.659Z,13.45
2023-03-03T00:51:30.042Z,11.90
2023-03-03T00:53:59.860Z,13.13
2023-03-03T00:56:31.607Z,13.23
2023-03-03T00:59:00.893Z,13.82
2023-03-03T01:01:30.795Z,11.75
2023-03-03T01:03:59.267Z,13.38
2023-03-03T01:06:29.259Z,11.80
2023-03-03T01:08:57.857Z,13.75
2023-03-03T01:11:28.609Z,15.25
2023-03-03T01:13:57.814Z,16.40
2023-03-03T01:16:28.717Z,13.90
2023-03-03T01:18:57.205Z,13.35
2023-03-03T01:21:25.605Z,13.02
2023-03-03T01:23:55.827Z,13.15
2023-03-03T01:26:24.256Z,12.85
2023-03-03T01:28:52.946Z,11.40
2023-03-03T01:31:22.175Z,12.27
2023-03-03T01:33:50.682Z,13.60
2023-03-03T01:36:24.592Z,11.02
2023-03-03T01:38:54.837Z,11.60
2023-03-03T01:41:23.376Z,12.38
2023-03-03T01:43:52.356Z,11.63
2023-03-03T01:46:49.552Z,12.48
2023-03-03T01:49:21.792Z,12.52
2023-03-03T01:51:53.659Z,11.07
2023-03-03T01:54:29.730Z,11.40
2023-03-03T01:57:02.628Z,12.15
2023-03-03T01:59:35.572Z,12.05
2023-03-03T02:02:07.214Z,10.40
2023-03-03T02:04:36.506Z,9.93
2023-03-03T02:07:10.998Z,9.52
2023-03-03T02:09:50.834Z,9.88
2023-03-03T02:12:21.908Z,9.50
2023-03-03T02:14:50.850Z,10.00
2023-03-03T02:17:19.979Z,9.63
2023-03-03T02:19:55.687Z,9.48
2023-03-03T02:22:32.383Z,10.85
2023-03-03T02:25:07.263Z,9.60
2023-03-03T02:27:37.989Z,12.48
2023-03-03T02:30:12.630Z,11.15
2023-03-03T02:32:41.922Z,9.65
2023-03-03T02:35:32.635Z,11.45
2023-03-03T02:38:10.921Z,10.77
2023-03-03T02:40:44.221Z,9.70
2023-03-03T02:43:15.878Z,8.75
2023-03-03T02:45:45.450Z,9.65
2023-03-03T02:48:13.939Z,9.90
2023-03-03T02:50:42.489Z,9.32
2023-03-03T02:53:10.994Z,12.38
2023-03-03T02:55:40.535Z,11.48
2023-03-03T02:58:09.040Z,10.98
2023-03-03T03:00:39.148Z,13.27
2023-03-03T03:03:07.658Z,13.13
2023-03-03T03:05:40.074Z,13.07
2023-03-03T03:08:08.590Z,12.35
2023-03-03T03:10:37.824Z,10.90
2023-03-03T03:13:07.549Z,10.20
2023-03-03T03:15:36.550Z,10.25
2023-03-03T03:18:07.762Z,10.98
2023-03-03T03:20:40.028Z,13.60
2023-03-03T03:23:08.856Z,12.98
2023-03-03T03:25:42.736Z,11.90
2023-03-03T03:28:11.320Z,12.48
2023-03-03T03:30:40.766Z,11.63
2023-03-03T03:33:11.438Z,11.38
2023-03-03T03:35:45.522Z,14.02
2023-03-03T03:38:15.902Z,13.20
2023-03-03T03:40:44.905Z,10.88
2023-03-03T03:43:13.490Z,12.48
2023-03-03T03:45:43.936Z,13.05
2023-03-03T03:48:15.806Z,12.57
2023-03-03T03:50:46.394Z,13.53
2023-03-03T03:53:14.885Z,13.20
2023-03-03T03:55:43.343Z,13.80
2023-03-03T03:58:14.506Z,13.93
2023-03-03T04:00:43.775Z,12.07
2023-03-03T04:03:15.417Z,14.23
2023-03-03T04:05:45.728Z,12.60
2023-03-03T04:08:14.717Z,12.38
2023-03-03T04:10:44.445Z,12.48
2023-03-03T04:13:13.714Z,12.25
2023-03-03T04:15:43.125Z,12.57
2023-03-03T04:18:13.581Z,12.93
2023-03-03T04:20:43.283Z,12.70
2023-03-03T04:23:12.853Z,16.45
2023-03-03T04:25:41.374Z,17.60
2023-03-03T04:28:15.714Z,17.17
2023-03-03T04:30:45.167Z,16.40
2023-03-03T04:33:17.417Z,18.20
2023-03-03T04:35:46.715Z,17.95
2023-03-03T04:38:15.306Z,17.67
2023-03-03T04:40:44.773Z,19.67
2023-03-03T04:43:16.170Z,16.73
2023-03-03T04:45:45.341Z,17.90
2023-03-03T04:48:13.975Z,17.05
2023-03-03T04:50:44.436Z,17.85
2023-03-03T04:53:12.893Z,18.63
2023-03-03T04:55:43.153Z,18.25
2023-03-03T04:58:11.700Z,18.35
2023-03-03T05:00:41.324Z,18.30
2023-03-03T05:03:13.826Z,18.08
2023-03-03T05:05:45.385Z,16.08
2023-03-03T05:08:14.007Z,15.00
2023-03-03T05:10:42.494Z,17.42
2023-03-03T05:13:11.035Z,13.80
2023-03-03T05:15:41.649Z,13.35
2023-03-03T05:18:11.649Z,14.18
2023-03-03T05:20:42.030Z,12.60
2023-03-03T05:23:11.839Z,13.57
2023-03-03T05:25:41.591Z,14.50
2023-03-03T05:28:10.161Z,15.05
2023-03-03T05:30:42.198Z,13.77
2023-03-03T05:33:14.681Z,16.17
2023-03-03T05:35:43.582Z,15.25
2023-03-03T05:38:13.503Z,13.05
2023-03-03T05:40:41.985Z,14.77
2023-03-03T05:43:10.414Z,14.70
2023-03-03T05:45:38.865Z,16.92
2023-03-03T05:48:07.548Z,12.93
2023-03-03T05:50:35.999Z,15.02
2023-03-03T05:53:04.874Z,14.63
2023-03-03T05:55:34.785Z,14.32
2023-03-03T05:58:03.155Z,15.55
2023-03-03T06:00:31.616Z,13.32
2023-03-03T06:03:00.165Z,13.48
2023-03-03T06:05:28.664Z,12.48
2023-03-03T06:07:57.062Z,14.82
2023-03-03T06:10:25.646Z,15.98
2023-03-03T06:12:59.026Z,12.85
2023-03-03T06:15:27.656Z,13.05
2023-03-03T06:17:56.197Z,13.50
2023-03-03T06:20:24.633Z,12.82
2023-03-03T06:22:53.118Z,12.23
2023-03-03T06:25:21.576Z,13.13
2023-03-03T06:27:50.175Z,12.18
2023-03-03T06:30:20.307Z,12.38
2023-03-03T06:32:48.810Z,11.05
2023-03-03T06:35:18.360Z,9.90
2023-03-03T06:37:46.954Z,11.68
2023-03-03T06:40:15.648Z,13.10
2023-03-03T06:42:44.130Z,10.80
2023-03-03T06:45:13.378Z,11.40
2023-03-03T06:47:43.192Z,11.38
2023-03-03T06:50:13.131Z,10.43
2023-03-03T06:52:41.639Z,11.88
2023-03-03T06:55:17.402Z,11.85
2023-03-03T06:57:45.839Z,11.65
2023-03-03T07:00:20.137Z,13.05
2023-03-03T07:02:58.799Z,11.32
2023-03-03T07:05:29.887Z,9.75
2023-03-03T07:07:58.657Z,8.95
2023-03-03T07:10:29.422Z,9.18
2023-03-03T07:13:03.241Z,9.32
2023-03-03T07:15:35.589Z,9.52
2023-03-03T07:18:18.410Z,10.18
2023-03-03T07:20:46.887Z,10.35
2023-03-03T07:23:22.559Z,10.23
2023-03-03T07:25:52.554Z,11.00
2023-03-03T07:28:25.170Z,11.35
2023-03-03T07:30:54.156Z,11.38
2023-03-03T07:33:28.064Z,12.88
2023-03-03T07:35:58.213Z,12.02
2023-03-03T07:38:32.477Z,12.27
2023-03-03T07:41:04.251Z,10.88
2023-03-03T07:43:37.359Z,10.93
2023-03-03T07:46:27.830Z,11.15
2023-03-03T07:48:58.696Z,10.73
2023-03-03T07:51:29.409Z,9.07
2023-03-03T07:54:22.448Z,8.15
2023-03-03T07:56:50.929Z,9.07
2023-03-03T07:59:23.247Z,8.27
2023-03-03T08:01:55.321Z,9.25
2023-03-03T08:04:30.886Z,11.48
2023-03-03T08:07:01.380Z,11.40
2023-03-03T08:09:48.495Z,12.48
2023-03-03T08:12:29.906Z,13.38
2023-03-03T08:15:09.056Z,10.40
2023-03-03T08:17:40.046Z,12.82
2023-03-03T08:20:45.664Z,12.88
2023-03-03T08:23:15.893Z,13.80
2023-03-03T08:25:45.334Z,12.60
2023-03-03T08:28:14.034Z,14.18
2023-03-03T08:30:43.874Z,14.13
2023-03-03T08:33:12.593Z,11.20
2023-03-03T08:35:43.012Z,11.70
2023-03-03T08:38:14.664Z,11.95
2023-03-03T08:40:43.431Z,11.68
2023-03-03T08:43:14.505Z,13.05
2023-03-03T08:45:42.855Z,16.27
2023-03-03T08:48:11.243Z,16.38
2023-03-03T08:50:40.414Z,14.00
2023-03-03T08:53:11.136Z,12.85
2023-03-03T08:55:39.536Z,13.30
2023-03-03T08:58:07.905Z,13.50
2023-03-03T09:00:36.466Z,13.27
2023-03-03T09:03:07.074Z,13.75
2023-03-03T09:05:37.971Z,10.77
2023-03-03T09:08:08.102Z,10.05
2023-03-03T09:10:37.925Z,10.50
2023-03-03T09:13:12.377Z,12.95
2023-03-03T09:15:40.840Z,9.93
2023-03-03T09:18:17.219Z,10.48
2023-03-03T09:20:48.886Z,10.15
2023-03-03T09:23:39.183Z,11.35
2023-03-03T09:26:28.506Z,11.27
2023-03-03T09:29:02.285Z,11.63
2023-03-03T09:31:39.051Z,12.23
2023-03-03T09:34:20.594Z,12.63
2023-03-03T09:36:49.502Z,11.55
2023-03-03T09:39:20.203Z,11.90
2023-03-03T09:42:10.828Z,11.68
2023-03-03T09:45:00.632Z,10.65
2023-03-03T09:47:41.653Z,9.70
2023-03-03T09:50:21.845Z,9.50
2023-03-03T09:52:58.319Z,10.07
2023-03-03T09:55:41.150Z,9.80
2023-03-03T09:58:32.991Z,9.13
2023-03-03T10:01:16.511Z,9.10
2023-03-03T10:04:10.411Z,12.13
2023-03-03T10:06:42.604Z,11.38
2023-03-03T10:09:34.798Z,11.32
2023-03-03T10:12:08.865Z,12.18
2023-03-03T10:14:59.423Z,9.60
2023-03-03T10:17:41.924Z,11.07
2023-03-03T10:20:54.296Z,10.32
2023-03-03T10:23:36.026Z,10.23
2023-03-03T10:26:18.145Z,12.88
2023-03-03T10:29:11.985Z,10.85
2023-03-03T10:31:52.465Z,11.15
2023-03-03T10:34:35.094Z,11.10
2023-03-03T10:37:14.518Z,10.40
2023-03-03T10:39:59.377Z,10.48
2023-03-03T10:42:39.772Z,9.60
2023-03-03T10:45:36.338Z,10.68
2023-03-03T10:48:28.969Z,11.68
2023-03-03T10:51:09.823Z,10.50
2023-03-03T10:53:46.204Z,11.40
2023-03-03T10:56:28.769Z,10.73
2023-03-03T10:59:10.827Z,10.18
2023-03-03T11:01:50.058Z,14.07
2023-03-03T11:04:33.034Z,12.23
2023-03-03T11:07:08.050Z,13.40
2023-03-03T11:09:54.811Z,13.35
2023-03-03T11:12:34.805Z,12.57
2023-03-03T11:15:24.001Z,12.32
2023-03-03T11:18:08.857Z,11.43
2023-03-03T11:20:44.057Z,11.88
2023-03-03T11:23:30.774Z,10.02
2023-03-03T11:26:09.317Z,10.25
2023-03-03T11:28:56.173Z,9.63
2023-03-03T11:31:32.160Z,9.85
2023-03-03T11:34:08.086Z,11.27
2023-03-03T11:36:43.644Z,10.90
2023-03-03T11:39:15.304Z,11.90
2023-03-03T11:41:54.520Z,14.02
2023-03-03T11:44:26.551Z,13.27
2023-03-03T11:46:59.636Z,12.13
2023-03-03T11:49:35.059Z,11.88
2023-03-03T11:52:20.986Z,11.75
2023-03-03T11:54:53.541Z,11.52
2023-03-03T11:57:29.025Z,11.98
2023-03-03T12:00:17.309Z,9.85
2023-03-03T12:02:59.709Z,11.98
2023-03-03T12:05:47.622Z,13.25
2023-03-03T12:08:30.492Z,11.07
2023-03-03T12:11:04.054Z,11.73
2023-03-03T12:13:48.478Z,11.27
2023-03-03T12:16:26.808Z,9.65
2023-03-03T12:19:08.011Z,9.73
2023-03-03T12:21:52.305Z,12.30
2023-03-03T12:24:35.257Z,12.93
2023-03-03T12:27:15.264Z,13.68
2023-03-03T12:29:52.603Z,12.43
2023-03-03T12:32:35.202Z,12.00
2023-03-03T12:35:10.469Z,10.00
2023-03-03T12:37:52.403Z,10.77
2023-03-03T12:40:25.917Z,10.60
2023-03-03T12:43:06.830Z,9.82
2023-03-03T12:45:50.247Z,9.57
2023-03-03T12:48:22.486Z,11.23
2023-03-03T12:51:00.801Z,11.40
2023-03-03T12:53:41.467Z,10.93
2023-03-03T12:56:17.555Z,11.25
2023-03-03T12:58:55.676Z,9.63
2023-03-03T13:01:36.003Z,10.77
2023-03-03T13:04:10.787Z,11.52
2023-03-03T13:06:48.780Z,9.73
2023-03-03T13:09:32.942Z,9.85
2023-03-03T13:12:16.138Z,11.83
2023-03-03T13:14:50.509Z,10.45
2023-03-03T13:17:24.371Z,10.88
2023-03-03T13:19:59.981Z,11.50
2023-03-03T13:22:42.888Z,11.05
2023-03-03T13:25:28.779Z,10.50
2023-03-03T13:28:03.739Z,11.88
2023-03-03T13:30:35.852Z,11.40
2023-03-03T13:33:12.516Z,11.02
2023-03-03T13:35:45.578Z,11.65
2023-03-03T13:38:15.605Z,10.05
2023-03-03T13:40:47.263Z,10.18
2023-03-03T13:43:20.671Z,11.05
2023-03-03T13:45:59.629Z,10.48
2023-03-03T13:48:45.626Z,10.60
2023-03-03T13:51:24.493Z,11.20
2023-03-03T13:54:01.045Z,11.73
2023-03-03T13:56:42.200Z,9.68
2023-03-03T13:59:22.247Z,9.75
2023-03-03T14:01:59.142Z,10.43
2023-03-03T14:04:36.677Z,10.88
2023-03-03T14:07:14.306Z,11.40
2023-03-03T14:09:58.086Z,11.40
2023-03-03T14:12:39.254Z,10.88
2023-03-03T14:15:20.691Z,10.55
2023-03-03T14:18:01.302Z,11.27
2023-03-03T14:20:32.417Z,10.63
2023-03-03T14:23:03.721Z,10.82
2023-03-03T14:25:52.669Z,11.02
2023-03-03T14:28:23.272Z,10.32
2023-03-03T14:30:55.951Z,7.97
2023-03-03T14:33:30.915Z,9.82
2023-03-03T14:36:06.055Z,10.85
2023-03-03T14:38:46.671Z,10.38
2023-03-03T14:41:19.232Z,9.40
2023-03-03T14:43:57.646Z,9.25
2023-03-03T14:46:36.054Z,9.30
2023-03-03T14:49:06.919Z,8.63
2023-03-03T14:51:42.583Z,8.63
2023-03-03T14:54:22.119Z,9.68
2023-03-03T14:57:08.132Z,9.00
2023-03-03T14:59:36.606Z,9.23
2023-03-03T15:02:29.961Z,9.50
2023-03-03T15:05:22.969Z,8.73
2023-03-03T15:07:54.608Z,8.68
2023-03-03T15:10:36.046Z,10.13
2023-03-03T15:13:30.180Z,8.30
2023-03-03T15:16:11.380Z,7.68
2023-03-03T15:19:22.347Z,8.40
2023-03-03T15:22:00.429Z,7.32
2023-03-03T15:24:38.770Z,7.22
2023-03-03T15:27:14.505Z,7.95
2023-03-03T15:29:50.978Z,8.25
2023-03-03T15:32:30.838Z,6.90
2023-03-03T15:35:11.174Z,8.43
2023-03-03T15:37:47.101Z,8.00
2023-03-03T15:40:25.994Z,7.13
2023-03-03T15:43:03.070Z,6.65
2023-03-03T15:45:34.913Z,6.75
2023-03-03T15:48:21.796Z,7.00
2023-03-03T15:50:56.828Z,8.32
2023-03-03T15:53:40.993Z,7.53
2023-03-03T15:56:19.077Z,7.28
2023-03-03T15:59:25.328Z,7.05
2023-03-03T16:02:03.575Z,7.80
2023-03-03T16:04:36.080Z,7.05
2023-03-03T16:07:14.654Z,7.30
2023-03-03T16:09:56.678Z,6.80
2023-03-03T16:12:35.284Z,6.68
2023-03-03T16:15:23.056Z,6.30
2023-03-03T16:17:59.579Z,6.47
2023-03-03T16:20:36.133Z,7.00
2023-03-03T16:23:32.239Z,6.05
2023-03-03T16:26:11.360Z,6.10
2023-03-03T16:28:51.642Z,5.78
2023-03-03T16:31:24.009Z,6.93
2023-03-03T16:34:02.773Z,5.90
2023-03-03T16:36:39.457Z,5.10
2023-03-03T16:39:14.016Z,6.07
2023-03-03T16:41:52.317Z,6.18
2023-03-03T16:44:32.990Z,5.55
2023-03-03T16:47:14.888Z,5.15
2023-03-03T16:49:55.217Z,4.95
2023-03-03T16:52:43.775Z,5.65
2023-03-03T16:55:19.192Z,5.13
2023-03-03T16:58:03.067Z,5.30
2023-03-03T17:00:38.958Z,5.03
2023-03-03T17:03:35.754Z,5.25
2023-03-03T17:06:12.091Z,5.05
2023-03-03T17:09:04.672Z,5.95
2023-03-03T17:11:44.564Z,6.03
2023-03-03T17:14:33.296Z,5.38
2023-03-03T17:17:06.171Z,5.25
2023-03-03T17:19:50.854Z,5.70
2023-03-03T17:22:28.412Z,5.63
2023-03-03T17:25:06.550Z,5.28
2023-03-03T17:27:52.541Z,5.68
2023-03-03T17:30:29.142Z,5.80
2023-03-03T17:33:16.646Z,6.43
2023-03-03T17:35:58.359Z,6.00
2023-03-03T17:38:39.307Z,6.90
2023-03-03T17:41:12.500Z,5.68
2023-03-03T17:43:48.909Z,5.90
2023-03-03T17:46:27.328Z,5.25
2023-03-03T17:49:27.698Z,5.80
2023-03-03T17:52:25.017Z,5.78
2023-03-03T17:55:24.041Z,5.38
2023-03-03T17:58:09.576Z,5.93
2023-03-03T18:00:53.032Z,6.07
2023-03-03T18:03:36.910Z,5.97
2023-03-03T18:09:13.706Z,5.97
2023-03-03T18:11:57.617Z,6.63
2023-03-03T18:14:56.009Z,6.15
2023-03-03T18:17:47.604Z,6.50
2023-03-03T18:20:31.453Z,5.47
2023-03-03T18:23:43.071Z,4.82
2023-03-03T18:26:35.081Z,5.95
2023-03-03T18:29:26.274Z,5.35
2023-03-03T18:32:19.641Z,5.50
2023-03-03T18:34:48.396Z,4.90
2023-03-03T18:37:41.808Z,5.20
2023-03-03T18:40:33.290Z,4.85
2023-03-03T18:43:40.969Z,5.60
2023-03-03T18:46:12.452Z,4.88
2023-03-03T18:48:51.065Z,5.50
2023-03-03T18:51:53.344Z,5.50
2023-03-03T18:54:30.941Z,4.57
2023-03-03T18:57:16.013Z,5.20
2023-03-03T18:59:54.835Z,4.88
2023-03-03T19:02:35.854Z,4.25
2023-03-03T19:05:20.199Z,4.85
2023-03-03T19:07:58.412Z,4.50
2023-03-03T19:10:55.510Z,5.00
2023-03-03T19:13:46.989Z,5.30
2023-03-03T19:16:37.799Z,4.63
2023-03-03T19:19:12.202Z,4.80
2023-03-03T19:21:42.799Z,5.22
2023-03-03T19:24:28.511Z,4.60
2023-03-03T19:27:30.433Z,4.90
2023-03-03T19:30:20.896Z,4.70
2023-03-03T19:33:19.424Z,5.07
2023-03-03T19:36:03.166Z,5.88
2023-03-03T19:38:40.495Z,4.85
2023-03-03T19:41:21.806Z,5.30
2023-03-03T19:44:03.140Z,4.80
2023-03-03T19:46:49.900Z,4.97
2023-03-03T19:49:28.860Z,4.80
2023-03-03T19:52:06.477Z,5.32
2023-03-03T19:54:54.628Z,5.55
2023-03-03T19:57:43.115Z,5.90
2023-03-03T20:00:21.117Z,4.93
2023-03-03T20:03:07.153Z,5.13
2023-03-03T20:05:43.910Z,5.05
2023-03-03T20:08:19.623Z,5.50
2023-03-03T20:10:55.133Z,5.82
2023-03-03T20:13:37.325Z,6.43
2023-03-03T20:16:20.581Z,6.82
2023-03-03T20:19:08.243Z,6.95
2023-03-03T20:21:42.960Z,6.13
2023-03-03T20:24:40.734Z,6.75
2023-03-03T20:27:18.808Z,6.40
2023-03-03T20:30:08.922Z,5.78
2023-03-03T20:32:49.699Z,8.32
2023-03-03T20:35:30.843Z,7.20
2023-03-03T20:38:10.666Z,7.40
2023-03-03T20:40:45.219Z,6.78
2023-03-03T20:43:29.468Z,7.53
2023-03-03T20:46:09.640Z,6.57
2023-03-03T20:48:59.658Z,7.13
2023-03-03T20:51:39.680Z,6.43
2023-03-03T20:54:15.536Z,6.47
2023-03-03T20:56:51.159Z,6.88
2023-03-03T20:59:28.356Z,6.97
2023-03-03T21:02:07.270Z,7.15
2023-03-03T21:04:36.383Z,7.40
2023-03-03T21:07:07.120Z,7.78
2023-03-03T21:09:38.806Z,7.05
2023-03-03T21:12:26.382Z,6.22
2023-03-03T21:15:01.081Z,6.72
2023-03-03T21:17:31.972Z,7.10
2023-03-03T21:20:21.220Z,5.18
2023-03-03T21:22:51.331Z,6.82
2023-03-03T21:25:49.493Z,6.78
2023-03-03T21:28:23.880Z,5.93
2023-03-03T21:31:08.814Z,5.90
2023-03-03T21:33:45.237Z,6.28
2023-03-03T21:36:16.132Z,6.32
2023-03-03T21:38:51.522Z,7.20
2023-03-03T21:41:21.430Z,6.80
2023-03-03T21:43:51.857Z,8.05
2023-03-03T21:46:21.897Z,6.35
2023-03-03T21:48:50.740Z,5.88
2023-03-03T21:51:20.582Z,6.65
2023-03-03T21:53:50.508Z,6.28
2023-03-03T21:56:18.955Z,6.78
2023-03-03T21:58:47.440Z,5.82
2023-03-03T22:01:16.023Z,7.00
2023-03-03T22:03:45.933Z,7.00
2023-03-03T22:06:14.504Z,7.53
2023-03-03T22:08:43.057Z,6.93
2023-03-03T22:11:15.474Z,6.03
2023-03-03T22:13:44.134Z,6.50
2023-03-03T22:16:13.106Z,6.50
2023-03-03T22:18:41.778Z,6.30
2023-03-03T22:21:10.321Z,6.97
2023-03-03T22:23:38.834Z,7.00
2023-03-03T22:26:07.408Z,6.72
2023-03-03T22:28:37.510Z,6.75
2023-03-03T22:31:07.222Z,6.22
2023-03-03T22:33:38.289Z,7.30
2023-03-03T22:36:08.304Z,7.63
2023-03-03T22:38:38.992Z,6.28
2023-03-03T22:41:08.428Z,6.43
2023-03-03T22:43:38.627Z,6.82
2023-03-03T22:46:07.433Z,7.03
2023-03-03T22:48:39.662Z,7.03
2023-03-03T22:51:08.263Z,6.47
2023-03-03T22:53:36.849Z,6.43
2023-03-03T22:56:05.772Z,6.78
2023-03-03T22:58:34.313Z,6.32
2023-03-03T23:01:05.126Z,6.88
2023-03-03T23:03:33.766Z,6.50
2023-03-03T23:06:02.302Z,5.88
2023-03-03T23:08:31.163Z,5.15
2023-03-03T23:10:59.802Z,5.50
2023-03-03T23:13:28.322Z,5.45
2023-03-03T23:16:00.022Z,6.13
2023-03-03T23:18:30.589Z,5.93
2023-03-03T23:20:59.157Z,5.75
2023-03-03T23:23:27.728Z,5.57
2023-03-03T23:25:56.826Z,5.38
2023-03-03T23:28:25.320Z,5.38
2023-03-03T23:30:53.925Z,5.70
2023-03-03T23:33:24.954Z,5.85
2023-03-03T23:35:55.120Z,6.28
2023-03-03T23:38:23.816Z,5.72
2023-03-03T23:40:52.274Z,5.38
2023-03-03T23:43:20.825Z,5.80
2023-03-03T23:45:49.392Z,6.43
2023-03-03T23:48:18.035Z,6.28
2023-03-03T23:50:46.526Z,6.20
2023-03-03T23:53:16.414Z,6.25
2023-03-03T23:55:45.609Z,6.07
2023-03-03T23:58:14.171Z,6.45
